createdAt,value
2023-08-03T00:00:14.881Z,24.5
2023-08-03T00:01:16.749Z,24.5
2023-08-03T00:02:18.757Z,24.5
2023-08-03T00:03:20.799Z,24.5
2023-08-03T00:04:26.084Z,24.6
2023-08-03T00:05:31.256Z,24.6
2023-08-03T00:06:33.077Z,24.5
2023-08-03T00:07:35.160Z,24.5
2023-08-03T00:08:36.893Z,24.6
2023-08-03T00:09:38.805Z,24.6
2023-08-03T00:10:40.632Z,24.6
2023-08-03T00:11:42.535Z,24.6
2023-08-03T00:12:45.604Z,24.5
2023-08-03T00:13:47.305Z,24.5
2023-08-03T00:14:49.022Z,24.5
2023-08-03T00:15:50.809Z,24.4
2023-08-03T00:16:52.988Z,24.5
2023-08-03T00:17:54.761Z,24.5
2023-08-03T00:18:56.732Z,24.6
2023-08-03T00:19:58.571Z,24.5
2023-08-03T00:21:00.367Z,24.5
2023-08-03T00:22:02.156Z,24.5
2023-08-03T00:23:03.978Z,24.5
2023-08-03T00:24:05.695Z,24.5
2023-08-03T00:25:07.523Z,24.5
2023-08-03T00:26:09.303Z,24.5
2023-08-03T00:27:11.070Z,24.5
2023-08-03T00:28:12.813Z,24.5
2023-08-03T00:29:14.570Z,24.5
2023-08-03T00:30:19.202Z,24.4
2023-08-03T00:31:20.943Z,24.4
2023-08-03T00:32:22.862Z,24.4
2023-08-03T00:33:24.741Z,24.4
2023-08-03T00:34:26.946Z,24.4
2023-08-03T00:35:28.712Z,24.4
2023-08-03T00:36:30.441Z,24.4
2023-08-03T00:37:32.156Z,24.4
2023-08-03T00:38:33.888Z,24.4
2023-08-03T00:39:35.703Z,24.4
2023-08-03T00:40:37.686Z,24.4
2023-08-03T00:41:39.458Z,24.4
2023-08-03T00:42:41.325Z,24.4
2023-08-03T00:43:43.034Z,24.4
2023-08-03T00:44:44.749Z,24.3
2023-08-03T00:45:49.480Z,24.3
2023-08-03T00:46:51.228Z,24.3
2023-08-03T00:47:53.330Z,24.3
2023-08-03T00:48:55.645Z,24.3
2023-08-03T00:49:57.345Z,24.4
2023-08-03T00:50:59.144Z,24.4
2023-08-03T00:52:00.913Z,24.3
2023-08-03T00:53:02.652Z,24.3
2023-08-03T00:54:04.387Z,24.3
2023-08-03T00:55:06.142Z,24.3
2023-08-03T00:56:08.097Z,24.3
2023-08-03T00:57:09.791Z,24.3
2023-08-03T00:58:11.477Z,24.3
2023-08-03T00:59:13.233Z,24.3
2023-08-03T01:00:14.902Z,24.3
2023-08-03T01:01:16.699Z,24.3
2023-08-03T01:02:18.907Z,24.3
2023-08-03T01:03:20.847Z,24.3
2023-08-03T01:04:22.846Z,24.3
2023-08-03T01:05:24.568Z,24.3
2023-08-03T01:06:26.281Z,24.3
2023-08-03T01:07:28.658Z,24.3
2023-08-03T01:08:30.583Z,24.3
2023-08-03T01:09:32.345Z,24.3
2023-08-03T01:10:34.119Z,24.3
2023-08-03T01:11:36.232Z,24.2
2023-08-03T01:12:37.951Z,24.2
2023-08-03T01:13:39.744Z,24.2
2023-08-03T01:14:41.509Z,24.3
2023-08-03T01:15:43.359Z,24.2
2023-08-03T01:16:45.117Z,24.2
2023-08-03T01:17:46.941Z,24.2
2023-08-03T01:18:51.602Z,24.2
2023-08-03T01:19:53.295Z,24.2
2023-08-03T01:20:55.139Z,24.2
2023-08-03T01:21:56.895Z,24.3
2023-08-03T01:22:58.650Z,24.3
2023-08-03T01:24:00.392Z,24.3
2023-08-03T01:25:02.137Z,24.3
2023-08-03T01:26:03.882Z,24.3
2023-08-03T01:27:05.627Z,24.2
2023-08-03T01:28:07.347Z,24.2
2023-08-03T01:29:09.058Z,24.2
2023-08-03T01:30:10.842Z,24.2
2023-08-03T01:31:12.754Z,24.2
2023-08-03T01:32:14.671Z,24.2
2023-08-03T01:33:16.727Z,24.2
2023-08-03T01:34:19.304Z,24.2
2023-08-03T01:35:23.757Z,24.1
2023-08-03T01:36:25.461Z,24.1
2023-08-03T01:37:27.146Z,24.2
2023-08-03T01:38:28.899Z,24.2
2023-08-03T01:39:30.762Z,24.2
2023-08-03T01:40:32.456Z,24.2
2023-08-03T01:41:34.244Z,24.2
2023-08-03T01:42:36.119Z,24.2
2023-08-03T01:43:37.824Z,24.2
2023-08-03T01:44:39.573Z,24.2
2023-08-03T01:45:41.282Z,24.2
2023-08-03T01:46:43.012Z,24.2
2023-08-03T01:47:45.141Z,24.2
2023-08-03T01:48:47.216Z,24.2
2023-08-03T01:49:48.982Z,24.2
2023-08-03T01:50:50.725Z,24.1
2023-08-03T01:51:52.433Z,24.1
2023-08-03T01:52:54.349Z,24.1
2023-08-03T01:53:56.097Z,24.1
2023-08-03T01:54:57.844Z,24.1
2023-08-03T01:55:59.581Z,24.1
2023-08-03T01:57:01.392Z,24.1
2023-08-03T01:58:03.148Z,24.1
2023-08-03T01:59:04.885Z,24.1
2023-08-03T02:00:06.720Z,24.1
2023-08-03T02:01:08.470Z,24.1
2023-08-03T02:02:10.231Z,24.1
2023-08-03T02:03:12.200Z,24.1
2023-08-03T02:04:14.262Z,24.1
2023-08-03T02:05:16.123Z,24.1
2023-08-03T02:06:17.954Z,24.1
2023-08-03T02:07:19.742Z,24
2023-08-03T02:08:24.510Z,24
2023-08-03T02:09:26.317Z,24
2023-08-03T02:10:28.199Z,24
2023-08-03T02:11:30.010Z,24.1
2023-08-03T02:12:31.738Z,24.1
2023-08-03T02:13:33.400Z,24.1
2023-08-03T02:14:35.157Z,24.1
2023-08-03T02:15:36.945Z,24.1
2023-08-03T02:16:38.649Z,24
2023-08-03T02:17:40.668Z,24
2023-08-03T02:18:42.796Z,24
2023-08-03T02:19:44.518Z,24.1
2023-08-03T02:20:46.304Z,24.1
2023-08-03T02:21:48.001Z,24.1
2023-08-03T02:22:49.723Z,24.1
2023-08-03T02:23:51.642Z,24.1
2023-08-03T02:24:53.386Z,24
2023-08-03T02:25:55.218Z,24
2023-08-03T02:26:56.937Z,24
2023-08-03T02:27:58.821Z,24
2023-08-03T02:29:00.554Z,24
2023-08-03T02:30:02.289Z,24
2023-08-03T02:31:04.064Z,24
2023-08-03T02:32:05.778Z,24
2023-08-03T02:33:07.628Z,24
2023-08-03T02:34:09.406Z,24
2023-08-03T02:35:11.067Z,23.9
2023-08-03T02:36:12.841Z,23.9
2023-08-03T02:37:14.540Z,24
2023-08-03T02:38:16.209Z,24
2023-08-03T02:39:17.882Z,24
2023-08-03T02:40:19.601Z,24
2023-08-03T02:41:23.922Z,24
2023-08-03T02:42:25.616Z,24
2023-08-03T02:43:27.420Z,23.9
2023-08-03T02:44:29.227Z,23.9
2023-08-03T02:45:30.917Z,23.9
2023-08-03T02:46:32.780Z,23.9
2023-08-03T02:47:34.499Z,23.9
2023-08-03T02:48:36.470Z,23.9
2023-08-03T02:49:38.159Z,23.9
2023-08-03T02:50:42.988Z,23.9
2023-08-03T02:51:44.925Z,23.9
2023-08-03T02:52:48.063Z,23.9
2023-08-03T02:53:49.794Z,23.9
2023-08-03T02:54:51.599Z,23.9
2023-08-03T02:55:53.662Z,23.9
2023-08-03T02:56:55.383Z,23.9
2023-08-03T02:57:57.151Z,23.9
2023-08-03T02:58:59.032Z,23.9
2023-08-03T03:00:00.918Z,23.9
2023-08-03T03:01:02.809Z,23.9
2023-08-03T03:02:04.851Z,23.9
2023-08-03T03:03:06.611Z,23.9
2023-08-03T03:04:08.893Z,23.9
2023-08-03T03:05:10.619Z,23.9
2023-08-03T03:06:12.446Z,23.9
2023-08-03T03:07:14.457Z,23.9
2023-08-03T03:08:16.293Z,23.9
2023-08-03T03:09:18.017Z,23.9
2023-08-03T03:10:19.726Z,23.9
2023-08-03T03:11:21.528Z,23.9
2023-08-03T03:12:23.269Z,23.9
2023-08-03T03:13:24.991Z,23.9
2023-08-03T03:14:26.713Z,23.9
2023-08-03T03:15:28.502Z,23.8
2023-08-03T03:16:30.368Z,23.8
2023-08-03T03:17:32.204Z,23.8
2023-08-03T03:18:36.877Z,23.8
2023-08-03T03:19:38.581Z,23.8
2023-08-03T03:20:40.304Z,23.8
2023-08-03T03:21:42.533Z,23.8
2023-08-03T03:22:45.733Z,23.8
2023-08-03T03:23:47.457Z,23.9
2023-08-03T03:24:49.123Z,23.9
2023-08-03T03:25:50.809Z,23.9
2023-08-03T03:26:52.518Z,23.9
2023-08-03T03:27:57.845Z,23.8
2023-08-03T03:28:59.540Z,23.8
2023-08-03T03:30:01.256Z,23.8
2023-08-03T03:31:03.092Z,23.8
2023-08-03T03:32:04.875Z,23.9
2023-08-03T03:33:06.843Z,23.8
2023-08-03T03:34:11.706Z,23.8
2023-08-03T03:35:13.403Z,23.8
2023-08-03T03:36:15.178Z,23.8
2023-08-03T03:37:16.903Z,23.8
2023-08-03T03:38:18.711Z,23.8
2023-08-03T03:39:20.405Z,23.9
2023-08-03T03:40:22.156Z,23.9
2023-08-03T03:41:23.870Z,24
2023-08-03T03:42:25.676Z,24.1
2023-08-03T03:43:27.407Z,24.1
2023-08-03T03:44:29.108Z,24
2023-08-03T03:45:30.981Z,23.9
2023-08-03T03:46:33.084Z,23.9
2023-08-03T03:47:34.955Z,23.9
2023-08-03T03:48:37.198Z,23.9
2023-08-03T03:49:39.396Z,23.9
2023-08-03T03:50:41.712Z,23.9
2023-08-03T03:51:43.723Z,24
2023-08-03T03:52:48.902Z,24.1
2023-08-03T03:53:50.710Z,24.1
2023-08-03T03:54:52.486Z,24.2
2023-08-03T03:55:54.178Z,24.2
2023-08-03T03:56:55.908Z,24.3
2023-08-03T03:57:57.859Z,24.3
2023-08-03T03:58:59.584Z,24.3
2023-08-03T04:00:04.071Z,24.3
2023-08-03T04:01:05.925Z,24.4
2023-08-03T04:02:08.022Z,24.4
2023-08-03T04:03:09.815Z,24.5
2023-08-03T04:04:11.985Z,24.5
2023-08-03T04:05:13.710Z,24.5
2023-08-03T04:06:15.423Z,24.5
2023-08-03T04:07:20.104Z,24.6
2023-08-03T04:08:21.916Z,24.6
2023-08-03T04:09:23.688Z,24.6
2023-08-03T04:10:25.377Z,24.6
2023-08-03T04:11:27.077Z,24.6
2023-08-03T04:12:28.802Z,24.7
2023-08-03T04:13:30.586Z,24.6
2023-08-03T04:14:32.374Z,24.6
2023-08-03T04:15:34.155Z,24.6
2023-08-03T04:16:36.037Z,24.6
2023-08-03T04:17:37.939Z,24.6
2023-08-03T04:18:39.823Z,24.6
2023-08-03T04:19:41.534Z,24.7
2023-08-03T04:20:43.267Z,24.7
2023-08-03T04:21:45.162Z,24.7
2023-08-03T04:22:48.616Z,24.7
2023-08-03T04:23:50.364Z,24.7
2023-08-03T04:24:52.098Z,24.7
2023-08-03T04:25:53.799Z,24.8
2023-08-03T04:26:55.522Z,24.8
2023-08-03T04:27:57.376Z,24.8
2023-08-03T04:28:59.176Z,24.8
2023-08-03T04:30:00.910Z,24.9
2023-08-03T04:31:02.805Z,24.9
2023-08-03T04:32:05.014Z,24.9
2023-08-03T04:33:06.764Z,25
2023-08-03T04:34:08.509Z,25
2023-08-03T04:35:10.218Z,25.1
2023-08-03T04:36:11.959Z,25.1
2023-08-03T04:37:13.652Z,25.1
2023-08-03T04:38:15.384Z,25.1
2023-08-03T04:39:17.145Z,25.1
2023-08-03T04:40:19.034Z,25.1
2023-08-03T04:41:20.739Z,25.1
2023-08-03T04:42:22.432Z,25.1
2023-08-03T04:43:24.192Z,25.1
2023-08-03T04:44:25.906Z,25.1
2023-08-03T04:45:27.615Z,25.1
2023-08-03T04:46:29.357Z,25.1
2023-08-03T04:47:31.366Z,25.1
2023-08-03T04:48:36.293Z,25.1
2023-08-03T04:49:38.161Z,25.1
2023-08-03T04:50:39.891Z,25.2
2023-08-03T04:51:41.766Z,25.2
2023-08-03T04:52:45.007Z,25.2
2023-08-03T04:53:46.768Z,25.2
2023-08-03T04:54:48.635Z,25.2
2023-08-03T04:55:50.403Z,25.3
2023-08-03T04:56:53.579Z,25.3
2023-08-03T04:57:55.665Z,25.3
2023-08-03T04:58:57.395Z,25.3
2023-08-03T04:59:59.198Z,25.3
2023-08-03T05:01:01.028Z,25.4
2023-08-03T05:02:03.425Z,25.4
2023-08-03T05:03:05.794Z,25.4
2023-08-03T05:04:07.998Z,25.4
2023-08-03T05:05:10.164Z,25.5
2023-08-03T05:06:12.010Z,25.5
2023-08-03T05:07:14.156Z,25.5
2023-08-03T05:08:16.043Z,25.5
2023-08-03T05:09:17.801Z,25.5
2023-08-03T05:10:19.679Z,25.6
2023-08-03T05:11:21.457Z,25.6
2023-08-03T05:12:23.167Z,25.6
2023-08-03T05:13:24.914Z,25.6
2023-08-03T05:14:26.637Z,25.6
2023-08-03T05:15:28.523Z,25.6
2023-08-03T05:16:30.271Z,25.6
2023-08-03T05:17:32.387Z,25.7
2023-08-03T05:18:34.514Z,25.7
2023-08-03T05:19:36.351Z,25.8
2023-08-03T05:20:38.170Z,25.8
2023-08-03T05:21:39.861Z,25.8
2023-08-03T05:22:41.770Z,25.8
2023-08-03T05:23:43.486Z,25.8
2023-08-03T05:24:45.184Z,25.8
2023-08-03T05:25:46.971Z,25.8
2023-08-03T05:26:48.706Z,25.8
2023-08-03T05:27:50.437Z,25.8
2023-08-03T05:28:52.170Z,25.8
2023-08-03T05:29:53.920Z,25.8
2023-08-03T05:30:55.799Z,25.8
2023-08-03T05:31:57.745Z,25.8
2023-08-03T05:32:59.477Z,25.8
2023-08-03T05:34:01.430Z,25.9
2023-08-03T05:35:03.174Z,25.9
2023-08-03T05:36:04.925Z,25.8
2023-08-03T05:37:06.624Z,25.9
2023-08-03T05:38:08.371Z,25.9
2023-08-03T05:39:10.111Z,25.9
2023-08-03T05:40:11.862Z,25.9
2023-08-03T05:41:13.568Z,25.9
2023-08-03T05:42:15.302Z,25.9
2023-08-03T05:43:17.087Z,25.9
2023-08-03T05:44:18.804Z,26
2023-08-03T05:45:20.538Z,26
2023-08-03T05:46:24.579Z,25.9
2023-08-03T05:47:29.916Z,25.9
2023-08-03T05:48:31.907Z,25.9
2023-08-03T05:49:33.737Z,25.8
2023-08-03T05:50:36.292Z,25.8
2023-08-03T05:51:38.060Z,25.7
2023-08-03T05:52:39.769Z,25.6
2023-08-03T05:53:41.472Z,25.6
2023-08-03T05:54:44.676Z,25.6
2023-08-03T05:56:01.527Z,25.6
2023-08-03T05:57:14.390Z,25.6
2023-08-03T05:58:16.259Z,25.6
2023-08-03T05:59:18.096Z,25.7
2023-08-03T06:00:19.829Z,25.7
2023-08-03T06:01:21.607Z,25.7
2023-08-03T06:02:23.584Z,25.7
2023-08-03T06:03:25.273Z,25.7
2023-08-03T06:04:30.015Z,25.8
2023-08-03T06:05:31.905Z,25.8
2023-08-03T06:06:33.702Z,25.8
2023-08-03T06:07:36.178Z,25.8
2023-08-03T06:08:37.952Z,25.8
2023-08-03T06:09:39.654Z,25.8
2023-08-03T06:10:41.437Z,25.7
2023-08-03T06:11:43.188Z,25.7
2023-08-03T06:12:45.634Z,25.7
2023-08-03T06:13:47.370Z,25.7
2023-08-03T06:14:49.141Z,25.8
2023-08-03T06:15:50.856Z,25.8
2023-08-03T06:16:52.597Z,25.8
2023-08-03T06:17:54.400Z,25.8
2023-08-03T06:18:56.422Z,25.8
2023-08-03T06:19:58.197Z,25.8
2023-08-03T06:21:00.116Z,25.8
2023-08-03T06:22:02.019Z,25.8
2023-08-03T06:23:03.807Z,25.9
2023-08-03T06:24:05.538Z,25.9
2023-08-03T06:25:07.322Z,25.9
2023-08-03T06:26:09.152Z,25.9
2023-08-03T06:27:11.334Z,25.9
2023-08-03T06:28:13.167Z,25.9
2023-08-03T06:29:14.882Z,26
2023-08-03T06:30:16.716Z,25.9
2023-08-03T06:31:18.429Z,25.9
2023-08-03T06:32:20.431Z,25.9
2023-08-03T06:33:22.167Z,25.9
2023-08-03T06:34:23.872Z,25.9
2023-08-03T06:35:25.596Z,25.9
2023-08-03T06:36:27.520Z,25.9
2023-08-03T06:37:29.259Z,26
2023-08-03T06:38:30.981Z,26
2023-08-03T06:39:32.875Z,26
2023-08-03T06:40:34.591Z,26
2023-08-03T06:41:36.292Z,25.9
2023-08-03T06:42:38.012Z,25.9
2023-08-03T06:43:39.823Z,26
2023-08-03T06:44:41.650Z,25.9
2023-08-03T06:45:43.447Z,25.9
2023-08-03T06:46:45.546Z,25.8
2023-08-03T06:47:47.490Z,25.8
2023-08-03T06:48:49.526Z,25.8
2023-08-03T06:49:51.277Z,25.8
2023-08-03T06:50:53.024Z,25.9
2023-08-03T06:51:54.881Z,25.9
2023-08-03T06:52:59.365Z,25.9
2023-08-03T06:54:01.114Z,25.9
2023-08-03T06:55:02.807Z,25.9
2023-08-03T06:56:04.608Z,25.8
2023-08-03T06:57:06.434Z,25.8
2023-08-03T06:58:08.193Z,25.8
2023-08-03T06:59:10.717Z,25.8
2023-08-03T07:00:12.449Z,25.8
2023-08-03T07:01:14.311Z,25.8
2023-08-03T07:02:16.600Z,25.8
2023-08-03T07:03:18.540Z,25.8
2023-08-03T07:04:21.332Z,25.8
2023-08-03T07:05:23.101Z,25.8
2023-08-03T07:06:24.991Z,25.8
2023-08-03T07:07:26.962Z,25.8
2023-08-03T07:08:28.777Z,25.8
2023-08-03T07:09:30.526Z,25.8
2023-08-03T07:10:32.275Z,25.8
2023-08-03T07:11:34.026Z,25.8
2023-08-03T07:12:35.729Z,25.8
2023-08-03T07:13:37.776Z,25.8
2023-08-03T07:14:39.527Z,25.8
2023-08-03T07:15:41.459Z,25.8
2023-08-03T07:16:43.758Z,25.7
2023-08-03T07:17:45.563Z,25.8
2023-08-03T07:18:47.563Z,25.8
2023-08-03T07:19:49.594Z,25.8
2023-08-03T07:20:51.324Z,25.8
2023-08-03T07:21:53.094Z,25.8
2023-08-03T07:22:54.856Z,25.8
2023-08-03T07:23:56.696Z,25.8
2023-08-03T07:24:58.406Z,25.8
2023-08-03T07:26:02.807Z,25.8
2023-08-03T07:27:04.625Z,25.8
2023-08-03T07:28:06.561Z,25.8
2023-08-03T07:29:08.272Z,25.8
2023-08-03T07:30:10.057Z,25.8
2023-08-03T07:31:11.837Z,25.9
2023-08-03T07:32:13.850Z,25.9
2023-08-03T07:33:15.679Z,25.8
2023-08-03T07:34:17.540Z,25.8
2023-08-03T07:35:19.568Z,25.8
2023-08-03T07:36:21.338Z,25.9
2023-08-03T07:37:23.084Z,25.8
2023-08-03T07:38:25.010Z,25.8
2023-08-03T07:39:29.843Z,25.8
2023-08-03T07:40:31.636Z,25.8
2023-08-03T07:41:35.658Z,25.8
2023-08-03T07:42:37.360Z,25.8
2023-08-03T07:43:39.083Z,25.9
2023-08-03T07:45:51.773Z,25.8
2023-08-03T07:46:54.036Z,25.8
2023-08-03T07:47:55.884Z,25.8
2023-08-03T07:48:57.977Z,25.8
2023-08-03T07:49:59.796Z,25.8
2023-08-03T07:51:01.725Z,25.8
2023-08-03T07:52:03.645Z,25.8
2023-08-03T07:53:05.996Z,25.8
2023-08-03T07:54:07.748Z,25.8
2023-08-03T07:55:10.622Z,25.8
2023-08-03T07:56:12.479Z,25.9
2023-08-03T07:57:14.274Z,25.9
2023-08-03T07:58:15.988Z,25.9
2023-08-03T07:59:17.700Z,25.9
2023-08-03T08:00:19.405Z,25.9
2023-08-03T08:01:21.217Z,25.9
2023-08-03T08:02:23.668Z,25.9
2023-08-03T08:03:25.681Z,25.9
2023-08-03T08:04:27.789Z,25.9
2023-08-03T08:05:29.602Z,26
2023-08-03T08:06:34.065Z,25.9
2023-08-03T08:07:36.733Z,25.9
2023-08-03T08:08:38.748Z,25.9
2023-08-03T08:09:40.488Z,25.9
2023-08-03T08:10:42.462Z,25.9
2023-08-03T08:11:44.656Z,25.9
2023-08-03T08:12:49.618Z,25.9
2023-08-03T08:13:51.826Z,25.9
2023-08-03T08:14:53.574Z,26
2023-08-03T08:15:55.662Z,26
2023-08-03T08:17:11.001Z,26
2023-08-03T08:18:17.682Z,26
2023-08-03T08:19:20.178Z,26
2023-08-03T08:20:24.086Z,26
2023-08-03T08:21:26.186Z,26
2023-08-03T08:22:28.564Z,25.9
2023-08-03T08:23:31.241Z,25.9
2023-08-03T08:24:33.058Z,26
2023-08-03T08:25:35.515Z,25.9
2023-08-03T08:26:41.213Z,25.9
2023-08-03T08:27:43.938Z,25.9
2023-08-03T08:29:01.732Z,25.9
2023-08-03T08:30:11.807Z,26
2023-08-03T08:31:13.984Z,26
2023-08-03T08:32:15.976Z,26
2023-08-03T08:33:18.434Z,25.9
2023-08-03T08:34:20.625Z,26
2023-08-03T08:35:22.405Z,26
2023-08-03T08:36:24.139Z,26
2023-08-03T08:37:26.062Z,26
2023-08-03T08:38:27.820Z,26
2023-08-03T08:39:32.534Z,26
2023-08-03T08:40:34.471Z,25.9
2023-08-03T08:41:36.213Z,25.9
2023-08-03T08:42:37.972Z,25.9
2023-08-03T08:43:40.205Z,25.8
2023-08-03T08:44:41.953Z,25.8
2023-08-03T08:45:43.738Z,25.7
2023-08-03T08:46:45.651Z,25.7
2023-08-03T08:47:48.741Z,25.8
2023-08-03T08:48:51.939Z,25.8
2023-08-03T08:50:22.417Z,25.8
2023-08-03T08:57:09.984Z,25.7
2023-08-03T08:58:18.933Z,25.8
2023-08-03T09:00:34.988Z,25.8
2023-08-03T09:01:36.853Z,25.8
2023-08-03T09:02:38.689Z,25.8
2023-08-03T09:04:54.913Z,25.9
2023-08-03T09:07:11.386Z,25.9
2023-08-03T09:08:13.738Z,25.9
2023-08-03T09:09:15.642Z,26
2023-08-03T09:10:17.408Z,25.9
2023-08-03T09:11:19.228Z,25.9
2023-08-03T09:12:21.668Z,25.9
2023-08-03T09:13:23.833Z,25.9
2023-08-03T09:14:25.655Z,25.9
2023-08-03T09:15:27.723Z,25.9
2023-08-03T09:16:29.633Z,25.9
2023-08-03T09:17:34.501Z,26
2023-08-03T09:18:36.795Z,25.9
2023-08-03T09:19:39.584Z,25.7
2023-08-03T09:25:39.618Z,25.5
2023-08-03T09:27:59.352Z,25.6
2023-08-03T09:29:40.275Z,25.8
2023-08-03T09:30:42.229Z,25.8
2023-08-03T09:32:57.448Z,25.9
2023-08-03T09:33:59.815Z,25.9
2023-08-03T09:35:02.311Z,25.9
2023-08-03T09:36:04.116Z,25.8
2023-08-03T09:38:12.062Z,25.7
2023-08-03T09:40:28.029Z,25.6
2023-08-03T09:41:57.272Z,25.6
2023-08-03T09:43:02.279Z,25.6
2023-08-03T09:44:07.684Z,25.6
2023-08-03T09:45:33.076Z,25.6
2023-08-03T09:46:35.358Z,25.7
2023-08-03T09:47:37.374Z,25.9
2023-08-03T09:48:39.932Z,25.9
2023-08-03T09:49:41.897Z,25.9
2023-08-03T09:50:44.043Z,25.9
2023-08-03T09:53:00.350Z,25.9
2023-08-03T09:55:16.249Z,25.9
2023-08-03T09:56:18.026Z,26
2023-08-03T09:57:23.112Z,26
2023-08-03T09:58:25.194Z,25.9
2023-08-03T09:59:27.039Z,25.9
2023-08-03T10:00:29.583Z,26
2023-08-03T10:01:31.731Z,26
2023-08-03T10:02:33.574Z,26
2023-08-03T10:03:35.349Z,26
2023-08-03T10:04:37.716Z,26
2023-08-03T10:05:39.568Z,26
2023-08-03T10:06:41.352Z,26
2023-08-03T10:07:43.407Z,26
2023-08-03T10:08:45.207Z,26
2023-08-03T10:09:48.364Z,26
2023-08-03T10:10:51.292Z,26
2023-08-03T10:11:53.048Z,26
2023-08-03T10:12:54.887Z,26
2023-08-03T10:13:56.798Z,26
2023-08-03T10:15:01.236Z,26
2023-08-03T10:16:03.139Z,26
2023-08-03T10:17:05.918Z,26
2023-08-03T10:18:08.283Z,26
2023-08-03T10:19:10.389Z,26
2023-08-03T10:20:12.286Z,26
2023-08-03T10:21:14.060Z,26
2023-08-03T10:22:16.059Z,26
2023-08-03T10:23:17.827Z,26
2023-08-03T10:24:20.033Z,26
2023-08-03T10:25:22.095Z,26
2023-08-03T10:26:23.906Z,26
2023-08-03T10:27:26.362Z,26.1
2023-08-03T10:28:28.654Z,26.1
2023-08-03T10:29:30.473Z,26.1
2023-08-03T10:30:32.279Z,26.1
2023-08-03T10:31:34.644Z,26
2023-08-03T10:32:36.517Z,25.8
2023-08-03T10:33:41.058Z,25.8
2023-08-03T10:34:43.151Z,25.7
2023-08-03T10:35:44.915Z,25.7
2023-08-03T10:36:47.032Z,25.7
2023-08-03T10:37:50.534Z,25.7
2023-08-03T10:38:52.273Z,25.8
2023-08-03T10:39:54.278Z,25.7
2023-08-03T10:40:56.885Z,25.6
2023-08-03T10:41:58.698Z,25.7
2023-08-03T10:43:00.516Z,25.7
2023-08-03T10:44:02.899Z,25.6
2023-08-03T10:45:04.774Z,25.6
2023-08-03T10:46:06.661Z,25.6
2023-08-03T10:47:09.388Z,25.6
2023-08-03T10:48:12.295Z,25.7
2023-08-03T10:49:15.426Z,25.7
2023-08-03T10:50:17.608Z,25.7
2023-08-03T10:51:19.495Z,25.7
2023-08-03T10:52:21.276Z,25.7
2023-08-03T10:53:23.395Z,25.7
2023-08-03T10:54:25.137Z,25.7
2023-08-03T10:55:27.114Z,25.7
2023-08-03T10:56:32.289Z,25.7
2023-08-03T10:57:34.047Z,25.7
2023-08-03T10:58:35.793Z,25.6
2023-08-03T10:59:37.872Z,25.6
2023-08-03T11:00:39.717Z,25.6
2023-08-03T11:01:41.594Z,25.5
2023-08-03T11:02:43.943Z,25.6
2023-08-03T11:03:46.520Z,25.6
2023-08-03T11:04:49.090Z,25.6
2023-08-03T11:05:50.908Z,25.5
2023-08-03T11:06:52.877Z,25.5
2023-08-03T11:07:54.656Z,25.6
2023-08-03T11:08:56.674Z,25.5
2023-08-03T11:09:58.416Z,25.5
2023-08-03T11:11:00.274Z,25.6
2023-08-03T11:12:05.189Z,25.6
2023-08-03T11:13:06.981Z,25.7
2023-08-03T11:14:08.766Z,25.6
2023-08-03T11:15:10.711Z,25.6
2023-08-03T11:16:12.555Z,25.6
2023-08-03T11:17:14.574Z,25.6
2023-08-03T11:18:16.810Z,25.6
2023-08-03T11:19:21.490Z,25.6
2023-08-03T11:20:23.244Z,25.6
2023-08-03T11:21:25.025Z,25.5
2023-08-03T11:22:26.842Z,25.4
2023-08-03T11:23:29.073Z,25.4
2023-08-03T11:24:30.792Z,25.5
2023-08-03T11:25:32.588Z,25.6
2023-08-03T11:26:34.479Z,25.6
2023-08-03T11:27:36.292Z,25.7
2023-08-03T11:28:38.093Z,25.8
2023-08-03T11:29:41.597Z,25.8
2023-08-03T11:30:45.858Z,25.9
2023-08-03T11:31:47.799Z,26
2023-08-03T11:32:52.476Z,25.8
2023-08-03T11:33:54.439Z,25.8
2023-08-03T11:34:56.638Z,25.9
2023-08-03T11:35:58.745Z,25.9
2023-08-03T11:37:00.467Z,25.9
2023-08-03T11:38:02.210Z,26
2023-08-03T11:39:04.131Z,26
2023-08-03T11:40:06.078Z,26.1
2023-08-03T11:41:09.798Z,26.1
2023-08-03T11:42:14.072Z,26.1
2023-08-03T11:43:15.836Z,26
2023-08-03T11:44:17.754Z,26
2023-08-03T11:45:19.454Z,26
2023-08-03T11:46:21.235Z,26
2023-08-03T11:47:24.056Z,26
2023-08-03T11:48:26.253Z,26
2023-08-03T11:49:28.251Z,26
2023-08-03T11:50:30.101Z,26
2023-08-03T11:51:31.973Z,26
2023-08-03T11:52:33.803Z,26
2023-08-03T11:53:35.790Z,26
2023-08-03T11:54:37.789Z,26
2023-08-03T11:55:39.608Z,26
2023-08-03T11:56:44.636Z,26
2023-08-03T11:57:52.928Z,26
2023-08-03T11:58:55.345Z,26
2023-08-03T11:59:57.944Z,26
2023-08-03T12:00:59.921Z,25.9
2023-08-03T12:02:02.216Z,26
2023-08-03T12:03:04.479Z,26
2023-08-03T12:04:14.287Z,26.1
2023-08-03T12:05:18.755Z,26.1
2023-08-03T12:07:36.121Z,26.1
2023-08-03T12:08:39.124Z,26.1
2023-08-03T12:09:41.661Z,26.1
2023-08-03T12:10:43.564Z,26.1
2023-08-03T12:12:48.400Z,26
2023-08-03T12:13:50.324Z,26
2023-08-03T12:14:52.123Z,26
2023-08-03T12:15:54.072Z,26
2023-08-03T12:16:58.550Z,26
2023-08-03T12:18:01.415Z,26
2023-08-03T12:19:03.503Z,26
2023-08-03T12:20:05.753Z,26
2023-08-03T12:21:07.700Z,26
2023-08-03T12:23:14.778Z,25.9
2023-08-03T12:24:16.570Z,25.8
2023-08-03T12:25:18.711Z,25.8
2023-08-03T12:26:24.778Z,25.7
2023-08-03T12:27:26.561Z,25.7
2023-08-03T12:28:28.630Z,25.7
2023-08-03T12:29:30.382Z,25.6
2023-08-03T12:30:32.122Z,25.7
2023-08-03T12:31:34.053Z,25.6
2023-08-03T12:32:36.431Z,25.7
2023-08-03T12:33:38.644Z,25.7
2023-08-03T12:34:41.285Z,25.7
2023-08-03T12:35:43.105Z,25.7
2023-08-03T12:36:45.148Z,25.8
2023-08-03T12:37:49.106Z,25.9
2023-08-03T12:38:50.794Z,25.9
2023-08-03T12:39:52.694Z,26
2023-08-03T12:40:54.675Z,25.9
2023-08-03T12:41:56.422Z,25.8
2023-08-03T12:42:58.242Z,25.8
2023-08-03T12:44:00.310Z,25.7
2023-08-03T12:45:02.233Z,25.6
2023-08-03T12:46:04.098Z,25.6
2023-08-03T12:47:08.697Z,25.6
2023-08-03T12:49:20.395Z,25.7
2023-08-03T12:50:22.275Z,25.8
2023-08-03T12:51:24.391Z,25.8
2023-08-03T12:52:26.270Z,25.8
2023-08-03T12:53:28.098Z,25.9
2023-08-03T12:54:30.495Z,25.9
2023-08-03T12:55:32.207Z,25.8
2023-08-03T12:56:33.917Z,25.8
2023-08-03T12:57:35.658Z,25.9
2023-08-03T12:58:37.527Z,25.8
2023-08-03T12:59:39.239Z,25.8
2023-08-03T13:00:43.014Z,25.8
2023-08-03T13:01:45.006Z,25.8
2023-08-03T13:02:47.282Z,25.7
2023-08-03T13:03:49.767Z,25.7
2023-08-03T13:04:51.662Z,25.7
2023-08-03T13:05:54.226Z,25.7
2023-08-03T13:06:57.186Z,25.7
2023-08-03T13:07:59.056Z,25.7
2023-08-03T13:09:01.447Z,25.7
2023-08-03T13:10:03.274Z,25.7
2023-08-03T13:11:05.134Z,25.7
2023-08-03T13:12:09.283Z,25.6
2023-08-03T13:13:11.013Z,25.7
2023-08-03T13:14:14.264Z,25.7
2023-08-03T13:15:16.485Z,25.8
2023-08-03T13:16:18.422Z,25.9
2023-08-03T13:17:20.484Z,25.9
2023-08-03T13:18:23.048Z,25.9
2023-08-03T13:19:25.793Z,25.8
2023-08-03T13:20:27.600Z,25.8
2023-08-03T13:21:29.921Z,25.7
2023-08-03T13:22:31.682Z,25.7
2023-08-03T13:23:33.422Z,25.8
2023-08-03T13:24:35.177Z,25.8
2023-08-03T13:25:36.950Z,25.8
2023-08-03T13:26:38.773Z,25.7
2023-08-03T13:27:43.347Z,25.7
2023-08-03T13:28:45.115Z,25.7
2023-08-03T13:29:47.308Z,25.8
2023-08-03T13:30:49.129Z,25.8
2023-08-03T13:31:51.123Z,25.8
2023-08-03T13:32:53.009Z,25.8
2023-08-03T13:33:54.997Z,25.8
2023-08-03T13:34:56.748Z,25.8
2023-08-03T13:36:01.873Z,25.7
2023-08-03T13:37:03.689Z,25.8
2023-08-03T13:38:05.460Z,25.7
2023-08-03T13:39:12.593Z,25.6
2023-08-03T13:40:14.344Z,25.6
2023-08-03T13:41:16.276Z,25.6
2023-08-03T13:42:18.491Z,25.7
2023-08-03T13:43:20.298Z,25.7
2023-08-03T13:44:22.114Z,25.8
2023-08-03T13:45:24.278Z,25.8
2023-08-03T13:46:26.049Z,25.8
2023-08-03T13:47:28.066Z,25.8
2023-08-03T13:48:30.570Z,25.8
2023-08-03T13:49:32.577Z,25.8
2023-08-03T13:50:34.742Z,25.8
2023-08-03T13:51:36.886Z,25.8
2023-08-03T13:52:38.633Z,25.8
2023-08-03T13:53:40.534Z,25.8
2023-08-03T13:54:42.456Z,25.8
2023-08-03T13:55:44.251Z,25.8
2023-08-03T13:56:46.060Z,25.8
2023-08-03T13:58:06.357Z,25.8
2023-08-03T14:00:02.303Z,25.9
2023-08-03T14:02:17.286Z,25.8
2023-08-03T14:03:34.270Z,25.8
2023-08-03T14:04:38.213Z,25.8
2023-08-03T14:05:43.068Z,25.8
2023-08-03T14:07:50.230Z,25.8
2023-08-03T14:11:21.654Z,25.7
2023-08-03T14:12:24.304Z,25.7
2023-08-03T14:13:57.151Z,25.6
2023-08-03T14:15:36.941Z,25.7
2023-08-03T14:16:42.992Z,25.9
2023-08-03T14:17:56.523Z,25.9
2023-08-03T14:18:58.342Z,25.9
2023-08-03T14:20:59.354Z,26
2023-08-03T14:22:02.301Z,25.9
2023-08-03T14:23:05.869Z,26
2023-08-03T14:24:07.780Z,26
2023-08-03T14:26:23.360Z,25.9
2023-08-03T14:27:26.341Z,25.9
2023-08-03T14:29:41.881Z,25.8
2023-08-03T14:30:43.823Z,25.8
2023-08-03T14:31:46.913Z,25.8
2023-08-03T14:32:50.573Z,25.8
2023-08-03T14:33:53.567Z,25.8
2023-08-03T14:36:09.329Z,25.8
2023-08-03T14:37:11.387Z,25.8
2023-08-03T14:38:13.179Z,25.8